Time;durP1;ratioP1;P1;durP2;ratioP2;P2;SDS_P1;SDS_P2;PMS_P1;PMS_P2;Temp;Humidity;BMP_temperature;BMP_pressure;BME280_temperature;BME280_humidity;BME280_pressure;Samples;Min_cycle;Max_cycle;Signal;HPM_P1;HPM_P2
2021/03/04 00:01:02;;;;;;;52.63;28.08;;;;;;;;;;5117879;28;20120;-86
2021/03/04 00:03:28;;;;;;;46.33;26.33;;;;;;;;;;5117917;28;20030;-86
2021/03/04 00:05:54;;;;;;;51.03;26.58;;;;;;;;;;5118237;28;20043;-86
2021/03/04 00:08:20;;;;;;;48.75;27.02;;;;;;;;;;5118179;28;20095;-87
2021/03/04 00:10:46;;;;;;;52.40;28.20;;;;;;;;;;5117780;28;20023;-86
2021/03/04 00:13:12;;;;;;;48.50;26.75;;;;;;;;;;5117798;28;20020;-87
2021/03/04 00:15:40;;;;;;;55.33;29.48;;;;;;;;;;5117775;28;20032;-87
2021/03/04 00:18:06;;;;;;;62.20;32.63;;;;;;;;;;5116906;28;20054;-85
2021/03/04 00:20:33;;;;;;;60.38;32.22;;;;;;;;;;5116886;28;20032;-86
2021/03/04 00:22:59;;;;;;;72.25;36.53;;;;;;;;;;5116848;28;20031;-88
2021/03/04 00:25:26;;;;;;;70.57;37.90;;;;;;;;;;5116780;28;20072;-86
2021/03/04 00:27:52;;;;;;;82.15;42.10;;;;;;;;;;5117741;28;20116;-87
2021/03/04 00:30:19;;;;;;;72.30;37.35;;;;;;;;;;5117922;28;20032;-88
2021/03/04 00:32:45;;;;;;;67.78;38.33;;;;;;;;;;5117930;28;20020;-86
2021/03/04 00:35:11;;;;;;;71.80;39.08;;;;;;;;;;5117919;28;20358;-89
2021/03/04 00:37:37;;;;;;;81.25;43.05;;;;;;;;;;5117353;28;20020;-86
2021/03/04 00:40:08;;;;;;;74.50;41.00;;;;;;;;;;5117919;28;20016;-88
2021/03/04 00:42:34;;;;;;;77.50;40.78;;;;;;;;;;5118226;28;20111;-88
2021/03/04 00:45:00;;;;;;;85.95;42.60;;;;;;;;;;5117609;28;20028;-89
2021/03/04 00:47:26;;;;;;;85.50;43.97;;;;;;;;;;5116426;28;20422;-90
2021/03/04 00:49:52;;;;;;;88.72;45.05;;;;;;;;;;5119327;28;20032;-90
2021/03/04 00:52:18;;;;;;;82.28;44.00;;;;;;;;;;5121638;28;20019;-89
2021/03/04 00:54:44;;;;;;;81.28;43.65;;;;;;;;;;5121387;28;20030;-86
2021/03/04 00:57:10;;;;;;;84.13;43.90;;;;;;;;;;5120623;28;20102;-90
2021/03/04 00:59:36;;;;;;;81.57;42.28;;;;;;;;;;5120064;28;20073;-91
2021/03/04 01:02:03;;;;;;;78.32;41.78;;;;;;;;;;5120253;28;20130;-89
2021/03/04 01:04:29;;;;;;;89.15;44.85;;;;;;;;;;5121445;28;20102;-89
2021/03/04 01:06:55;;;;;;;87.25;44.40;;;;;;;;;;5120529;28;20019;-88
2021/03/04 01:09:21;;;;;;;86.28;44.47;;;;;;;;;;5121211;28;20020;-89
2021/03/04 01:11:47;;;;;;;91.18;46.92;;;;;;;;;;5120299;28;20050;-90
2021/03/04 01:14:13;;;;;;;87.43;45.78;;;;;;;;;;5121142;28;20030;-89
2021/03/04 01:16:39;;;;;;;78.82;42.40;;;;;;;;;;5120061;28;20020;-86
2021/03/04 01:19:05;;;;;;;76.47;42.47;;;;;;;;;;5121190;28;20020;-86
2021/03/04 01:21:31;;;;;;;86.32;44.13;;;;;;;;;;5120859;28;20030;-88
2021/03/04 01:23:57;;;;;;;86.55;46.47;;;;;;;;;;5120926;28;20051;-88
2021/03/04 01:26:23;;;;;;;95.80;50.97;;;;;;;;;;5121083;28;20028;-88
2021/03/04 01:28:49;;;;;;;97.10;54.13;;;;;;;;;;5120643;27;20118;-88
2021/03/04 01:31:16;;;;;;;102.97;53.05;;;;;;;;;;5120547;28;20093;-87
2021/03/04 01:33:42;;;;;;;106.47;52.08;;;;;;;;;;5119815;28;20407;-88
2021/03/04 01:36:08;;;;;;;97.68;52.00;;;;;;;;;;5119666;28;20512;-89
2021/03/04 01:38:34;;;;;;;94.00;51.88;;;;;;;;;;5120546;28;20020;-91
2021/03/04 01:41:00;;;;;;;90.88;51.25;;;;;;;;;;5119546;28;20421;-90
2021/03/04 01:43:26;;;;;;;90.65;50.35;;;;;;;;;;5119512;28;20039;-90
2021/03/04 01:45:52;;;;;;;89.80;47.67;;;;;;;;;;5119557;28;20110;-91
2021/03/04 01:48:18;;;;;;;83.30;45.50;;;;;;;;;;5119632;28;20031;-90
2021/03/04 01:50:44;;;;;;;86.90;46.75;;;;;;;;;;5120452;28;20023;-90
2021/03/04 01:53:10;;;;;;;83.10;46.08;;;;;;;;;;5120418;28;20020;-89
2021/03/04 01:55:36;;;;;;;96.18;49.78;;;;;;;;;;5119208;28;20027;-89
2021/03/04 01:58:03;;;;;;;101.47;52.42;;;;;;;;;;5120300;28;20320;-89
2021/03/04 02:00:29;;;;;;;101.47;51.45;;;;;;;;;;5118620;28;20047;-90
2021/03/04 02:02:55;;;;;;;103.72;53.20;;;;;;;;;;5120591;28;20030;-89
2021/03/04 02:05:22;;;;;;;102.95;52.08;;;;;;;;;;5120146;28;20123;-89
2021/03/04 02:08:20;;;;;;;100.10;51.67;;;;;;;;;;5120132;28;20028;-89
2021/03/04 02:10:49;;;;;;;99.78;51.55;;;;;;;;;;5057704;28;20033;-88
2021/03/04 02:13:27;;;;;;;102.82;51.70;;;;;;;;;;5040809;28;20331;-87
2021/03/04 02:15:56;;;;;;;96.90;49.47;;;;;;;;;;5057532;28;20083;-86
2021/03/04 02:18:24;;;;;;;97.70;49.75;;;;;;;;;;5040803;28;20029;-87
2021/03/04 02:21:09;;;;;;;88.60;48.40;;;;;;;;;;5057469;28;20406;-86
2021/03/04 02:23:53;;;;;;;90.07;46.85;;;;;;;;;;5057431;28;20069;-88
2021/03/04 02:26:27;;;;;;;82.18;44.60;;;;;;;;;;5057299;28;20065;-88
2021/03/04 02:28:55;;;;;;;92.40;46.28;;;;;;;;;;5040601;28;20120;-89
2021/03/04 02:31:21;;;;;;;81.93;44.38;;;;;;;;;;5040548;28;20078;-88
2021/03/04 02:33:49;;;;;;;80.65;44.75;;;;;;;;;;5057253;28;20047;-90
2021/03/04 02:36:16;;;;;;;79.75;43.72;;;;;;;;;;5040522;28;20025;-89
2021/03/04 02:38:43;;;;;;;80.53;44.83;;;;;;;;;;5057208;28;20112;-89
2021/03/04 02:41:10;;;;;;;85.90;44.63;;;;;;;;;;5057114;28;20167;-88
2021/03/04 02:43:36;;;;;;;80.93;43.90;;;;;;;;;;5040362;28;20053;-88
2021/03/04 02:46:03;;;;;;;85.30;46.00;;;;;;;;;;5080902;28;20039;-89
2021/03/04 02:48:33;;;;;;;85.15;45.08;;;;;;;;;;5118268;28;20027;-92
2021/03/04 02:51:00;;;;;;;81.00;44.53;;;;;;;;;;5119462;28;20052;-92
2021/03/04 02:53:26;;;;;;;86.97;46.20;;;;;;;;;;5118380;28;20026;-91
2021/03/04 02:55:52;;;;;;;81.30;44.33;;;;;;;;;;5118300;28;20023;-89
2021/03/04 02:58:19;;;;;;;81.70;42.58;;;;;;;;;;5118037;27;20024;-89
2021/03/04 03:00:45;;;;;;;78.40;42.95;;;;;;;;;;5118998;28;20074;-90
2021/03/04 03:03:13;;;;;;;74.90;40.97;;;;;;;;;;5119454;28;20028;-88
2021/03/04 03:05:42;;;;;;;77.88;41.00;;;;;;;;;;5118822;28;20019;-89
2021/03/04 03:08:09;;;;;;;80.80;42.67;;;;;;;;;;5119042;28;20351;-89
2021/03/04 03:10:35;;;;;;;86.40;43.85;;;;;;;;;;5118781;28;20051;-88
2021/03/04 03:13:03;;;;;;;145.68;61.05;;;;;;;;;;5117144;28;20015;-89
2021/03/04 03:15:29;;;;;;;118.00;53.53;;;;;;;;;;5118553;28;20437;-91
2021/03/04 03:17:55;;;;;;;96.30;48.22;;;;;;;;;;5118739;28;20023;-91
2021/03/04 03:20:22;;;;;;;102.00;52.80;;;;;;;;;;5118966;28;20068;-91
2021/03/04 03:22:49;;;;;;;92.15;49.35;;;;;;;;;;5118740;28;20040;-89
2021/03/04 03:25:15;;;;;;;99.43;51.70;;;;;;;;;;5118643;28;20121;-90
2021/03/04 03:27:42;;;;;;;90.88;46.50;;;;;;;;;;5117902;28;20030;-90
2021/03/04 03:30:17;;;;;;;92.07;45.67;;;;;;;;;;5117442;28;20322;-90
2021/03/04 03:32:48;;;;;;;82.90;43.67;;;;;;;;;;5118797;28;20432;-90
2021/03/04 03:35:14;;;;;;;77.97;41.67;;;;;;;;;;5117866;28;20015;-91
2021/03/04 03:37:41;;;;;;;77.85;38.25;;;;;;;;;;5118579;28;20019;-90
2021/03/04 03:40:09;;;;;;;66.22;37.60;;;;;;;;;;5118573;28;20389;-90
2021/03/04 03:42:36;;;;;;;68.75;37.40;;;;;;;;;;5117471;28;20122;-91
2021/03/04 03:45:03;;;;;;;66.68;37.75;;;;;;;;;;5117347;28;20027;-91
2021/03/04 03:47:32;;;;;;;71.68;37.95;;;;;;;;;;5118496;28;20286;-88
2021/03/04 03:49:59;;;;;;;70.03;37.83;;;;;;;;;;5117449;28;20070;-88
2021/03/04 03:52:25;;;;;;;73.55;38.20;;;;;;;;;;5116984;28;20024;-89
2021/03/04 03:55:11;;;;;;;74.53;38.30;;;;;;;;;;5118453;28;20070;-88
2021/03/04 03:57:39;;;;;;;72.75;37.50;;;;;;;;;;5117170;28;20080;-88
2021/03/04 04:00:06;;;;;;;85.20;41.08;;;;;;;;;;5118059;28;20036;-87
2021/03/04 04:02:32;;;;;;;85.97;41.83;;;;;;;;;;5118264;28;20295;-87
2021/03/04 04:04:58;;;;;;;94.95;44.58;;;;;;;;;;5118291;28;20058;-87
2021/03/04 04:07:25;;;;;;;95.65;44.15;;;;;;;;;;5117759;28;20023;-90
2021/03/04 04:10:09;;;;;;;91.13;41.78;;;;;;;;;;5117849;28;20027;-91
2021/03/04 04:12:36;;;;;;;88.60;42.70;;;;;;;;;;5118278;28;20024;-91
2021/03/04 04:15:02;;;;;;;85.10;43.20;;;;;;;;;;5117906;28;20045;-90
2021/03/04 04:17:28;;;;;;;78.55;39.75;;;;;;;;;;5117057;28;20425;-87
2021/03/04 04:19:55;;;;;;;71.53;37.20;;;;;;;;;;5118069;28;20024;-87
2021/03/04 04:22:22;;;;;;;71.88;38.10;;;;;;;;;;5118555;28;20020;-88
2021/03/04 04:24:48;;;;;;;76.05;38.38;;;;;;;;;;5122279;28;20027;-88
2021/03/04 04:27:14;;;;;;;73.55;39.40;;;;;;;;;;5122318;28;20106;-89
2021/03/04 04:29:40;;;;;;;65.75;37.20;;;;;;;;;;5122137;28;20024;-90
2021/03/04 04:32:07;;;;;;;70.00;37.65;;;;;;;;;;5121927;28;20031;-91
2021/03/04 04:34:33;;;;;;;73.45;37.45;;;;;;;;;;5122011;28;20048;-89
2021/03/04 04:36:59;;;;;;;75.88;38.13;;;;;;;;;;5120900;28;20019;-90
2021/03/04 04:39:25;;;;;;;86.95;41.33;;;;;;;;;;5121248;28;20028;-89
2021/03/04 04:41:51;;;;;;;82.80;39.63;;;;;;;;;;5122027;28;20035;-89
2021/03/04 04:44:17;;;;;;;80.05;40.28;;;;;;;;;;5122105;28;20031;-90
2021/03/04 04:46:43;;;;;;;84.57;42.33;;;;;;;;;;5121664;28;20034;-88
2021/03/04 04:49:09;;;;;;;88.88;42.63;;;;;;;;;;5121575;28;20051;-90
2021/03/04 04:51:35;;;;;;;84.43;39.45;;;;;;;;;;5120280;28;20039;-89
2021/03/04 04:57:42;;;;;;;75.25;36.42;;;;;;;;;;5121537;28;20030;-88
2021/03/04 05:00:09;;;;;;;68.68;34.40;;;;;;;;;;5121024;28;20048;-91
2021/03/04 05:02:35;;;;;;;70.40;36.80;;;;;;;;;;5121569;28;20020;-92
2021/03/04 05:05:01;;;;;;;75.85;38.88;;;;;;;;;;5120488;28;20095;-92
2021/03/04 05:07:27;;;;;;;86.28;41.67;;;;;;;;;;5121320;28;20024;-92
2021/03/04 05:09:54;;;;;;;80.88;42.03;;;;;;;;;;5121216;28;20015;-91
2021/03/04 05:12:20;;;;;;;94.03;43.83;;;;;;;;;;5121476;28;20023;-91
2021/03/04 05:14:46;;;;;;;274.40;126.20;;;;;;;;;;5121337;28;20047;-88
2021/03/04 05:17:12;;;;;;;267.83;126.22;;;;;;;;;;5120166;28;20150;-88
2021/03/04 05:19:38;;;;;;;197.25;88.07;;;;;;;;;;5121187;28;20027;-88
2021/03/04 05:22:04;;;;;;;168.02;76.47;;;;;;;;;;5120923;28;20030;-89
2021/03/04 05:24:30;;;;;;;154.05;71.28;;;;;;;;;;5119993;28;20062;-89
2021/03/04 05:26:57;;;;;;;165.82;72.38;;;;;;;;;;5121204;28;20432;-89
2021/03/04 05:29:23;;;;;;;158.00;71.88;;;;;;;;;;5121076;28;20046;-89
2021/03/04 05:31:49;;;;;;;148.30;69.95;;;;;;;;;;5119759;28;20028;-90
2021/03/04 05:34:15;;;;;;;138.63;65.35;;;;;;;;;;5119907;28;20055;-89
2021/03/04 05:36:41;;;;;;;132.02;68.25;;;;;;;;;;5120760;28;20024;-89
2021/03/04 05:39:07;;;;;;;136.73;71.18;;;;;;;;;;5120563;28;20064;-89
2021/03/04 05:41:33;;;;;;;155.77;79.45;;;;;;;;;;5119755;28;20024;-88
2021/03/04 05:43:59;;;;;;;159.43;83.63;;;;;;;;;;5120594;28;20024;-88
2021/03/04 05:46:26;;;;;;;173.32;89.82;;;;;;;;;;5120816;28;20291;-89
2021/03/04 05:48:52;;;;;;;163.85;83.43;;;;;;;;;;5120480;28;20024;-90
2021/03/04 05:51:31;;;;;;;162.75;82.38;;;;;;;;;;5120487;28;20031;-89
2021/03/04 05:53:58;;;;;;;147.63;74.35;;;;;;;;;;5119491;28;20028;-90
2021/03/04 05:56:24;;;;;;;169.70;84.60;;;;;;;;;;5119355;28;20024;-90
2021/03/04 05:58:51;;;;;;;169.80;87.10;;;;;;;;;;5120278;27;20024;-90
2021/03/04 06:01:18;;;;;;;177.25;91.85;;;;;;;;;;5119653;28;20074;-91
2021/03/04 06:03:44;;;;;;;231.55;110.10;;;;;;;;;;5120277;28;20028;-92
2021/03/04 06:06:11;;;;;;;240.82;114.32;;;;;;;;;;5120253;28;20463;-89
2021/03/04 06:08:37;;;;;;;211.60;98.45;;;;;;;;;;5119251;28;20028;-87
2021/03/04 06:11:04;;;;;;;165.27;82.03;;;;;;;;;;5119362;28;20060;-88
2021/03/04 06:13:30;;;;;;;192.57;93.88;;;;;;;;;;5119291;28;20024;-87
2021/03/04 06:15:56;;;;;;;228.25;114.10;;;;;;;;;;5118933;28;20038;-87
2021/03/04 06:18:22;;;;;;;259.33;126.95;;;;;;;;;;5119906;28;20020;-89
2021/03/04 06:20:49;;;;;;;261.67;124.50;;;;;;;;;;5120010;28;20023;-88
2021/03/04 06:23:15;;;;;;;244.43;119.28;;;;;;;;;;5120619;28;20020;-87
2021/03/04 06:25:44;;;;;;;211.95;107.78;;;;;;;;;;5120022;28;20020;-87
2021/03/04 06:28:10;;;;;;;208.20;104.78;;;;;;;;;;5119798;28;20024;-88
2021/03/04 06:30:37;;;;;;;198.15;103.68;;;;;;;;;;5118536;28;20023;-86
2021/03/04 06:33:04;;;;;;;221.73;116.28;;;;;;;;;;5119593;28;20047;-86
2021/03/04 06:35:41;;;;;;;224.30;115.15;;;;;;;;;;5115573;28;20024;-83
2021/03/04 06:44:14;;;;;;;183.88;82.03;;;;;;;;;;5099748;28;20085;-75
2021/03/04 06:46:46;;;;;;;174.35;73.57;;;;;;;;;;5101858;28;20019;-75
2021/03/04 06:49:12;;;;;;;214.35;95.45;;;;;;;;;;5097190;28;20166;-75
2021/03/04 06:51:45;;;;;;;247.38;104.60;;;;;;;;;;5098078;28;20089;-75
2021/03/04 06:54:21;;;;;;;188.32;85.90;;;;;;;;;;5098209;28;20020;-75
2021/03/04 06:56:48;;;;;;;176.70;81.50;;;;;;;;;;5098049;28;20023;-75
2021/03/04 06:59:14;;;;;;;203.15;90.57;;;;;;;;;;5096887;28;20089;-75
2021/03/04 07:01:41;;;;;;;223.00;103.88;;;;;;;;;;5098118;28;20024;-75
2021/03/04 07:04:12;;;;;;;239.20;115.18;;;;;;;;;;5096947;28;20024;-75
2021/03/04 07:06:39;;;;;;;209.07;101.40;;;;;;;;;;5097703;28;20024;-75
2021/03/04 07:09:06;;;;;;;197.43;97.93;;;;;;;;;;5097815;28;20032;-75
2021/03/04 07:11:34;;;;;;;197.68;96.97;;;;;;;;;;5097794;28;20723;-75
2021/03/04 07:14:01;;;;;;;193.57;87.15;;;;;;;;;;5096688;28;20055;-75
2021/03/04 07:16:36;;;;;;;179.55;79.03;;;;;;;;;;5097575;28;20042;-75
2021/03/04 07:19:02;;;;;;;171.40;76.10;;;;;;;;;;5097917;28;20020;-75
2021/03/04 07:21:34;;;;;;;155.80;72.68;;;;;;;;;;5097845;28;20035;-75
2021/03/04 07:24:02;;;;;;;157.90;74.72;;;;;;;;;;5097458;28;20466;-75
2021/03/04 07:26:29;;;;;;;167.10;75.57;;;;;;;;;;5097518;28;20028;-75
2021/03/04 07:28:56;;;;;;;173.15;78.45;;;;;;;;;;5097592;28;20031;-75
2021/03/04 07:31:22;;;;;;;163.57;76.35;;;;;;;;;;5097437;28;20422;-75
2021/03/04 07:33:49;;;;;;;166.13;78.97;;;;;;;;;;5097480;28;20026;-75
2021/03/04 07:36:19;;;;;;;161.98;76.35;;;;;;;;;;5097602;28;20016;-75
2021/03/04 07:38:53;;;;;;;163.93;77.65;;;;;;;;;;5097202;28;20020;-75
2021/03/04 07:41:19;;;;;;;187.75;82.32;;;;;;;;;;5096410;28;20393;-75
2021/03/04 07:43:48;;;;;;;151.93;72.75;;;;;;;;;;5097417;28;20023;-75
2021/03/04 07:46:34;;;;;;;128.05;63.00;;;;;;;;;;5097312;28;20034;-75
2021/03/04 07:49:01;;;;;;;117.68;56.42;;;;;;;;;;5097115;28;20020;-75
2021/03/04 07:51:27;;;;;;;99.03;49.80;;;;;;;;;;5097098;28;20024;-75
2021/03/04 07:53:54;;;;;;;86.72;46.08;;;;;;;;;;5097062;28;20032;-75
2021/03/04 07:56:23;;;;;;;80.93;44.60;;;;;;;;;;5097113;28;20061;-75
2021/03/04 07:58:49;;;;;;;79.57;42.65;;;;;;;;;;5096697;28;20029;-75
2021/03/04 08:01:15;;;;;;;78.80;42.58;;;;;;;;;;5097121;28;20052;-75
2021/03/04 08:03:51;;;;;;;79.65;42.83;;;;;;;;;;5097094;28;20028;-75
2021/03/04 08:06:18;;;;;;;70.47;39.78;;;;;;;;;;5096912;28;20023;-75
2021/03/04 08:08:48;;;;;;;77.85;42.75;;;;;;;;;;5096847;28;20034;-75
2021/03/04 08:11:33;;;;;;;74.22;42.17;;;;;;;;;;5101963;28;20032;-75
2021/03/04 08:14:13;;;;;;;68.75;41.33;;;;;;;;;;5117287;28;20023;-75
2021/03/04 08:16:39;;;;;;;67.70;40.10;;;;;;;;;;5115935;28;20122;-75
2021/03/04 08:19:05;;;;;;;68.72;41.33;;;;;;;;;;5115956;28;20051;-75
2021/03/04 08:21:31;;;;;;;78.82;40.95;;;;;;;;;;5117455;28;20286;-75
2021/03/04 08:23:58;;;;;;;66.97;39.15;;;;;;;;;;5117206;28;20035;-75
2021/03/04 08:26:28;;;;;;;65.25;38.55;;;;;;;;;;5117338;28;20023;-75
2021/03/04 08:29:04;;;;;;;67.90;39.47;;;;;;;;;;5117035;28;20019;-75
2021/03/04 08:31:30;;;;;;;66.15;39.20;;;;;;;;;;5117115;28;20114;-75
2021/03/04 08:33:57;;;;;;;66.25;39.30;;;;;;;;;;5115860;28;20031;-75
2021/03/04 08:36:23;;;;;;;65.75;39.78;;;;;;;;;;5117132;28;20409;-75
2021/03/04 08:38:49;;;;;;;58.30;36.50;;;;;;;;;;5116916;28;20024;-75
2021/03/04 08:41:24;;;;;;;62.15;37.45;;;;;;;;;;5116780;28;20023;-75
2021/03/04 08:43:51;;;;;;;69.47;37.65;;;;;;;;;;5117022;28;20468;-75
2021/03/04 08:46:18;;;;;;;66.53;36.17;;;;;;;;;;5117064;28;20032;-75
2021/03/04 08:48:48;;;;;;;63.08;36.50;;;;;;;;;;5117221;28;20460;-75
2021/03/04 08:51:15;;;;;;;64.05;37.45;;;;;;;;;;5116830;28;20469;-75
2021/03/04 08:53:41;;;;;;;78.05;40.33;;;;;;;;;;5117153;28;20317;-75
2021/03/04 08:56:08;;;;;;;63.05;35.13;;;;;;;;;;5116862;28;20144;-75
2021/03/04 08:58:40;;;;;;;62.40;35.63;;;;;;;;;;5116798;28;20145;-75
2021/03/04 09:01:06;;;;;;;64.38;37.28;;;;;;;;;;5116837;28;20128;-76
2021/03/04 09:03:36;;;;;;;55.75;33.95;;;;;;;;;;5116914;28;20475;-75
2021/03/04 09:06:03;;;;;;;60.83;34.70;;;;;;;;;;5115656;28;20092;-75
2021/03/04 09:08:33;;;;;;;65.65;37.70;;;;;;;;;;5116920;28;20028;-75
2021/03/04 09:10:59;;;;;;;56.95;33.53;;;;;;;;;;5119488;28;20028;-75
2021/03/04 09:13:25;;;;;;;55.40;33.20;;;;;;;;;;5120566;28;20317;-75
2021/03/04 09:15:56;;;;;;;52.20;31.48;;;;;;;;;;5120640;28;20024;-75
2021/03/04 09:18:25;;;;;;;53.65;30.60;;;;;;;;;;5119218;28;20067;-75
2021/03/04 09:20:53;;;;;;;57.92;33.17;;;;;;;;;;5120407;28;20047;-76
2021/03/04 09:23:19;;;;;;;71.00;34.65;;;;;;;;;;5120388;28;20023;-75
2021/03/04 09:25:46;;;;;;;162.55;53.10;;;;;;;;;;5120221;28;20313;-75
2021/03/04 09:28:13;;;;;;;99.13;37.35;;;;;;;;;;5120558;28;20028;-75
2021/03/04 09:30:40;;;;;;;157.23;46.92;;;;;;;;;;5120107;28;20059;-76
2021/03/04 09:33:15;;;;;;;131.18;40.42;;;;;;;;;;5119868;28;20032;-76
2021/03/04 09:35:51;;;;;;;49.70;26.27;;;;;;;;;;5120054;28;20020;-76
2021/03/04 09:38:17;;;;;;;55.35;30.60;;;;;;;;;;5119705;28;20402;-75
2021/03/04 09:40:43;;;;;;;40.85;22.15;;;;;;;;;;5119901;28;20421;-75
2021/03/04 09:43:16;;;;;;;34.85;21.33;;;;;;;;;;5119929;28;20416;-75
2021/03/04 09:45:53;;;;;;;33.28;20.58;;;;;;;;;;5120168;28;20039;-75
2021/03/04 09:48:37;;;;;;;78.10;29.23;;;;;;;;;;5119986;28;20044;-75
2021/03/04 09:51:03;;;;;;;66.75;29.90;;;;;;;;;;5119608;28;20028;-76
2021/03/04 09:53:30;;;;;;;33.47;21.98;;;;;;;;;;5118734;28;20023;-76
2021/03/04 09:55:56;;;;;;;36.38;19.42;;;;;;;;;;5119824;28;20104;-75
2021/03/04 09:58:25;;;;;;;35.90;22.40;;;;;;;;;;5119602;28;20016;-75
2021/03/04 10:00:58;;;;;;;37.72;21.23;;;;;;;;;;5119301;28;20510;-75
2021/03/04 10:03:34;;;;;;;34.10;21.25;;;;;;;;;;5119512;28;20043;-75
2021/03/04 10:06:00;;;;;;;33.10;21.85;;;;;;;;;;5119804;28;20027;-75
2021/03/04 10:08:36;;;;;;;34.63;20.15;;;;;;;;;;5119366;28;20425;-75
2021/03/04 10:11:02;;;;;;;40.90;23.45;;;;;;;;;;5119463;28;20035;-76
2021/03/04 10:13:28;;;;;;;42.88;23.83;;;;;;;;;;5118008;28;20457;-76
2021/03/04 10:15:54;;;;;;;40.85;25.75;;;;;;;;;;5119534;28;20023;-76
2021/03/04 10:18:21;;;;;;;43.83;27.90;;;;;;;;;;5119437;28;20019;-76
2021/03/04 10:20:47;;;;;;;40.58;25.63;;;;;;;;;;5118930;28;20023;-76
2021/03/04 10:23:14;;;;;;;46.30;27.50;;;;;;;;;;5119327;28;20035;-76
2021/03/04 10:25:40;;;;;;;46.28;26.58;;;;;;;;;;5119076;28;20031;-76
2021/03/04 10:28:07;;;;;;;35.28;22.73;;;;;;;;;;5119369;28;20308;-75
2021/03/04 10:30:34;;;;;;;41.70;25.80;;;;;;;;;;5119090;28;20080;-76
2021/03/04 10:33:01;;;;;;;36.47;25.58;;;;;;;;;;5119103;28;20103;-76
2021/03/04 10:35:27;;;;;;;46.65;28.38;;;;;;;;;;5119082;28;20283;-76
2021/03/04 10:37:53;;;;;;;42.47;24.63;;;;;;;;;;5119015;28;20023;-76
2021/03/04 10:40:20;;;;;;;37.10;23.05;;;;;;;;;;5118859;28;20023;-76
2021/03/04 10:42:46;;;;;;;54.03;32.53;;;;;;;;;;5118856;28;20016;-76
2021/03/04 10:45:13;;;;;;;49.00;31.48;;;;;;;;;;5118955;28;20402;-76
2021/03/04 10:47:40;;;;;;;46.90;28.63;;;;;;;;;;5117854;28;20027;-76
2021/03/04 10:50:07;;;;;;;50.70;27.83;;;;;;;;;;5118915;28;20120;-76
2021/03/04 10:52:33;;;;;;;82.72;49.22;;;;;;;;;;5118608;28;20019;-76
2021/03/04 10:54:59;;;;;;;33.75;21.20;;;;;;;;;;5118523;28;20356;-76
2021/03/04 10:57:25;;;;;;;37.00;23.23;;;;;;;;;;5118534;28;20019;-76
2021/03/04 10:59:52;;;;;;;47.60;29.60;;;;;;;;;;5118281;28;20044;-76
2021/03/04 11:02:20;;;;;;;41.03;24.27;;;;;;;;;;5118483;27;20028;-76
2021/03/04 11:04:46;;;;;;;48.55;29.63;;;;;;;;;;5118450;28;20020;-76
2021/03/04 11:07:12;;;;;;;45.35;26.27;;;;;;;;;;5118455;28;20401;-75
2021/03/04 11:09:38;;;;;;;65.00;37.67;;;;;;;;;;5118424;28;20053;-76
2021/03/04 11:12:05;;;;;;;29.42;19.48;;;;;;;;;;5118291;28;20305;-76
2021/03/04 11:14:31;;;;;;;29.50;19.88;;;;;;;;;;5118150;28;20024;-76
2021/03/04 11:16:57;;;;;;;31.00;18.83;;;;;;;;;;5118151;28;20020;-76
2021/03/04 11:19:23;;;;;;;53.03;30.48;;;;;;;;;;5118520;28;20034;-82
2021/03/04 11:21:49;;;;;;;40.25;25.08;;;;;;;;;;5118258;28;20405;-82
2021/03/04 11:24:15;;;;;;;64.82;37.70;;;;;;;;;;5118270;28;20085;-82
2021/03/04 11:26:41;;;;;;;69.68;38.63;;;;;;;;;;5118150;28;20031;-82
2021/03/04 11:29:08;;;;;;;41.58;22.15;;;;;;;;;;5118106;28;20344;-82
2021/03/04 11:31:35;;;;;;;35.45;21.65;;;;;;;;;;5116491;28;20036;-82
2021/03/04 11:34:02;;;;;;;32.42;19.73;;;;;;;;;;5117641;28;20034;-83
2021/03/04 11:36:32;;;;;;;35.40;20.20;;;;;;;;;;5116925;28;20020;-82
2021/03/04 11:38:59;;;;;;;76.85;39.67;;;;;;;;;;5117955;28;20024;-83
2021/03/04 11:41:25;;;;;;;44.92;24.90;;;;;;;;;;5118120;28;20030;-82
2021/03/04 11:43:51;;;;;;;38.55;21.70;;;;;;;;;;5117651;28;20027;-83
2021/03/04 11:46:18;;;;;;;41.35;24.75;;;;;;;;;;5117778;28;20023;-82
2021/03/04 11:48:45;;;;;;;28.23;17.48;;;;;;;;;;5116358;28;20059;-81
2021/03/04 11:51:11;;;;;;;32.00;17.77;;;;;;;;;;5117559;28;20028;-81
2021/03/04 11:53:37;;;;;;;23.67;14.15;;;;;;;;;;5117854;28;20020;-81
2021/03/04 11:56:03;;;;;;;20.02;12.32;;;;;;;;;;5117590;28;20020;-81
2021/03/04 11:58:29;;;;;;;21.70;12.43;;;;;;;;;;5117611;28;20087;-81
2021/03/04 12:00:56;;;;;;;22.48;11.85;;;;;;;;;;5117454;28;20048;-80
2021/03/04 12:03:23;;;;;;;22.95;13.55;;;;;;;;;;5116646;28;20055;-80
2021/03/04 12:05:49;;;;;;;18.80;12.82;;;;;;;;;;5117747;28;20032;-81
2021/03/04 12:08:16;;;;;;;23.48;13.90;;;;;;;;;;5117632;28;20023;-80
2021/03/04 12:10:42;;;;;;;18.73;11.57;;;;;;;;;;5117281;28;20019;-81
2021/03/04 12:13:09;;;;;;;22.55;11.85;;;;;;;;;;5117416;28;20119;-81
2021/03/04 12:15:35;;;;;;;18.02;11.18;;;;;;;;;;5117423;28;20065;-81
2021/03/04 12:18:01;;;;;;;29.50;17.02;;;;;;;;;;5116177;28;20031;-81
2021/03/04 12:20:28;;;;;;;22.02;11.93;;;;;;;;;;5117654;28;20076;-81
2021/03/04 12:22:54;;;;;;;18.95;11.90;;;;;;;;;;5117601;28;20053;-80
2021/03/04 12:25:20;;;;;;;17.77;9.45;;;;;;;;;;5117449;28;20023;-81
2021/03/04 12:27:46;;;;;;;26.08;12.95;;;;;;;;;;5117247;28;20034;-81
2021/03/04 12:30:12;;;;;;;24.70;13.70;;;;;;;;;;5117386;28;20044;-81
2021/03/04 12:32:40;;;;;;;29.02;11.98;;;;;;;;;;5115821;28;20040;-81
2021/03/04 12:35:07;;;;;;;26.77;13.80;;;;;;;;;;5117016;28;20043;-81
2021/03/04 12:37:33;;;;;;;25.65;16.70;;;;;;;;;;5116484;28;20035;-81
2021/03/04 12:39:59;;;;;;;36.22;17.85;;;;;;;;;;5117296;28;20019;-81
2021/03/04 12:42:25;;;;;;;35.05;19.35;;;;;;;;;;5117171;28;20062;-81
2021/03/04 12:44:51;;;;;;;23.73;10.75;;;;;;;;;;5120050;28;20083;-81
2021/03/04 12:47:17;;;;;;;12.80;7.97;;;;;;;;;;5121110;28;20413;-81
2021/03/04 12:49:43;;;;;;;18.73;7.97;;;;;;;;;;5121505;28;20046;-81
2021/03/04 12:52:10;;;;;;;17.45;11.00;;;;;;;;;;5120961;28;20023;-80
2021/03/04 12:54:36;;;;;;;17.17;9.48;;;;;;;;;;5121047;28;20023;-80
2021/03/04 12:57:02;;;;;;;15.63;9.48;;;;;;;;;;5121013;28;20020;-79
2021/03/04 12:59:28;;;;;;;20.27;8.45;;;;;;;;;;5120727;28;20479;-81
2021/03/04 13:01:54;;;;;;;17.50;11.57;;;;;;;;;;5119851;28;20055;-81
2021/03/04 13:04:20;;;;;;;13.60;7.50;;;;;;;;;;5120855;28;20019;-80
2021/03/04 13:06:46;;;;;;;13.60;8.18;;;;;;;;;;5119627;28;20035;-80
2021/03/04 13:09:13;;;;;;;14.68;8.05;;;;;;;;;;5120825;28;20044;-80
2021/03/04 13:11:41;;;;;;;15.52;7.53;;;;;;;;;;5119520;28;20096;-80
2021/03/04 13:14:08;;;;;;;13.05;8.00;;;;;;;;;;5120787;28;20022;-80
2021/03/04 13:16:34;;;;;;;16.08;10.02;;;;;;;;;;5120552;28;20047;-80
2021/03/04 13:19:00;;;;;;;23.17;9.45;;;;;;;;;;5119119;28;20333;-81
2021/03/04 13:21:27;;;;;;;13.20;7.88;;;;;;;;;;5120506;28;20058;-80
2021/03/04 13:23:53;;;;;;;13.38;7.25;;;;;;;;;;5120407;28;20051;-80
2021/03/04 13:26:19;;;;;;;12.95;8.00;;;;;;;;;;5120584;28;20320;-80
2021/03/04 13:28:46;;;;;;;16.67;8.95;;;;;;;;;;5120301;28;20103;-80
2021/03/04 13:31:12;;;;;;;15.05;8.98;;;;;;;;;;5120245;28;20410;-80
2021/03/04 13:33:38;;;;;;;12.55;6.88;;;;;;;;;;5120437;28;20019;-80
2021/03/04 13:36:05;;;;;;;9.15;6.22;;;;;;;;;;5120479;28;20031;-81
2021/03/04 13:38:32;;;;;;;10.20;6.03;;;;;;;;;;5120154;28;20019;-80
2021/03/04 13:40:58;;;;;;;10.32;6.05;;;;;;;;;;5119965;28;20077;-81
2021/03/04 13:43:26;;;;;;;10.45;6.18;;;;;;;;;;5119002;28;20054;-80
2021/03/04 13:45:52;;;;;;;12.85;6.32;;;;;;;;;;5120123;28;20028;-80
2021/03/04 13:48:18;;;;;;;17.60;8.15;;;;;;;;;;5119981;28;20016;-81
2021/03/04 13:50:44;;;;;;;13.52;8.30;;;;;;;;;;5119790;28;20024;-80
2021/03/04 13:53:10;;;;;;;29.90;15.55;;;;;;;;;;5119809;28;20019;-80
2021/03/04 13:55:36;;;;;;;22.90;9.63;;;;;;;;;;5119254;28;20356;-80
2021/03/04 13:58:02;;;;;;;23.30;13.52;;;;;;;;;;5118800;28;20026;-80
2021/03/04 14:00:28;;;;;;;16.58;10.63;;;;;;;;;;5119640;28;20035;-80
2021/03/04 14:02:54;;;;;;;24.77;10.00;;;;;;;;;;5119693;28;20354;-80
2021/03/04 14:05:20;;;;;;;22.73;9.40;;;;;;;;;;5119595;28;20389;-81
2021/03/04 14:07:47;;;;;;;19.27;10.02;;;;;;;;;;5119512;28;20031;-81
2021/03/04 14:10:13;;;;;;;21.20;10.05;;;;;;;;;;5119284;28;20020;-80
2021/03/04 14:12:40;;;;;;;12.70;7.47;;;;;;;;;;5118604;28;20028;-80
2021/03/04 14:15:07;;;;;;;15.07;7.70;;;;;;;;;;5119400;28;20026;-80
2021/03/04 14:17:33;;;;;;;11.93;7.75;;;;;;;;;;5118545;28;20162;-79
2021/03/04 14:19:59;;;;;;;19.23;6.15;;;;;;;;;;5119334;28;20032;-79
2021/03/04 14:22:25;;;;;;;10.48;6.00;;;;;;;;;;5119450;28;20031;-79
2021/03/04 14:24:51;;;;;;;14.77;7.20;;;;;;;;;;5119249;28;20015;-79
2021/03/04 14:27:17;;;;;;;23.58;9.55;;;;;;;;;;5119263;28;20078;-79